Time;durP1;ratioP1;P1;durP2;ratioP2;P2;SDS_P1;SDS_P2;PMS_P1;PMS_P2;Temp;Humidity;BMP_temperature;BMP_pressure;BME280_temperature;BME280_humidity;BME280_pressure;Samples;Min_cycle;Max_cycle;Signal;HPM_P1;HPM_P2
2022/06/27 00:03:36;;;;;;;3.80;3.00;;;;;;;20.00;55.34;98686.15;220419;1270;22551;-70
2022/06/27 00:08:44;;;;;;;4.30;3.50;;;;;;;19.98;55.79;98678.11;220302;1270;22994;-69
2022/06/27 00:13:49;;;;;;;5.80;3.60;;;;;;;19.98;56.24;98676.17;220177;1269;387495;-69
2022/06/27 00:18:52;;;;;;;4.50;4.10;;;;;;;20.00;56.23;98677.84;220506;1270;22638;-69
2022/06/27 00:23:54;;;;;;;5.90;3.60;;;;;;;19.96;56.10;98680.25;219970;1270;22955;-71
2022/06/27 00:28:57;;;;;;;5.00;3.80;;;;;;;19.90;56.47;98682.13;220240;1269;22550;-70
2022/06/27 00:34:02;;;;;;;3.70;3.40;;;;;;;19.82;56.39;98678.34;220667;1270;24270;-68
2022/06/27 00:39:05;;;;;;;5.90;3.80;;;;;;;19.73;56.91;98677.42;220334;1270;24291;-70
2022/06/27 00:44:07;;;;;;;4.00;3.60;;;;;;;19.64;57.05;98680.79;220485;1270;24207;-70
2022/06/27 00:49:09;;;;;;;6.30;3.70;;;;;;;19.59;57.17;98684.54;220712;1270;23567;-70
2022/06/27 00:54:12;;;;;;;4.70;3.80;;;;;;;19.52;57.24;98679.63;220676;1269;24183;-70
2022/06/27 00:59:36;;;;;;;4.30;3.80;;;;;;;19.43;57.31;98676.39;220527;1270;25339;-69
2022/06/27 01:04:38;;;;;;;4.50;3.80;;;;;;;19.32;57.58;98674.71;220509;1270;22536;-69
2022/06/27 01:09:43;;;;;;;5.10;4.10;;;;;;;19.24;57.90;98672.56;220608;1270;22528;-71
2022/06/27 01:14:46;;;;;;;4.60;4.20;;;;;;;19.16;58.17;98675.23;220405;1270;22632;-69
2022/06/27 01:19:48;;;;;;;4.80;3.90;;;;;;;19.10;58.47;98675.08;220475;1270;22565;-69
2022/06/27 01:24:55;;;;;;;5.40;3.80;;;;;;;19.03;58.68;98674.48;220573;1270;22542;-68
2022/06/27 01:30:24;;;;;;;5.30;4.40;;;;;;;18.97;59.18;98676.73;220109;1270;24227;-69
2022/06/27 01:35:27;;;;;;;5.50;4.40;;;;;;;18.90;59.43;98671.35;220537;1270;22673;-69
2022/06/27 01:40:30;;;;;;;7.20;4.70;;;;;;;18.86;59.75;98678.13;220180;1270;22597;-69
2022/06/27 01:45:33;;;;;;;6.00;5.00;;;;;;;18.80;59.93;98678.05;220237;1270;22548;-69
2022/06/27 01:50:42;;;;;;;6.30;5.10;;;;;;;18.73;60.09;98677.08;220356;1270;22596;-68
2022/06/27 01:55:47;;;;;;;5.20;4.60;;;;;;;18.67;60.30;98678.85;220041;1270;24310;-70
2022/06/27 02:00:49;;;;;;;5.60;4.60;;;;;;;18.59;60.37;98680.31;219840;1270;25701;-70
2022/06/27 02:05:53;;;;;;;6.60;4.70;;;;;;;18.51;60.92;98679.25;220538;1270;25236;-70
2022/06/27 02:10:57;;;;;;;6.10;5.10;;;;;;;18.44;61.20;98674.63;220397;1270;25476;-68
2022/06/27 02:16:19;;;;;;;5.10;4.40;;;;;;;18.36;61.29;98678.44;220562;1270;25462;-69
2022/06/27 02:21:26;;;;;;;5.40;4.70;;;;;;;18.32;61.87;98682.17;221244;1270;22702;-69
2022/06/27 02:26:30;;;;;;;7.30;4.20;;;;;;;18.28;61.81;98683.78;220536;1270;26876;-69
2022/06/27 02:31:33;;;;;;;6.30;5.00;;;;;;;18.24;61.92;98685.21;220405;1270;22569;-69
2022/06/27 02:36:41;;;;;;;5.50;4.50;;;;;;;18.20;62.06;98687.48;220486;1270;22518;-69
2022/06/27 02:41:59;;;;;;;5.10;3.80;;;;;;;18.16;62.40;98685.73;220564;1270;22529;-69
2022/06/27 02:47:20;;;;;;;5.00;4.40;;;;;;;18.14;62.62;98684.11;220234;1270;25460;-70
2022/06/27 02:52:31;;;;;;;8.00;4.60;;;;;;;18.11;62.84;98689.86;220304;1270;22554;-70
2022/06/27 02:57:59;;;;;;;6.00;4.60;;;;;;;18.10;63.00;98690.13;220762;1270;25246;-69
2022/06/27 03:03:05;;;;;;;5.30;4.30;;;;;;;18.10;63.11;98689.13;220373;1270;23094;-68
2022/06/27 03:08:12;;;;;;;6.20;4.80;;;;;;;18.11;63.46;98694.04;219961;1270;25399;-70
2022/06/27 03:13:14;;;;;;;6.40;4.80;;;;;;;18.13;63.68;98691.52;220454;1271;25705;-69
2022/06/27 03:18:34;;;;;;;5.60;4.20;;;;;;;18.16;63.77;98689.92;220486;1270;25236;-69
2022/06/27 03:24:45;;;;;;;6.90;4.50;;;;;;;18.40;64.15;98690.69;220349;1268;22528;-69
2022/06/27 03:30:10;;;;;;;5.40;4.50;;;;;;;18.80;64.02;98690.39;220349;1270;24800;-69
2022/06/27 03:35:37;;;;;;;5.70;4.90;;;;;;;19.24;63.76;98687.16;220560;1270;22820;-70
2022/06/27 03:40:42;;;;;;;5.00;4.50;;;;;;;19.72;63.19;98695.80;221051;1270;24429;-70
2022/06/27 03:45:46;;;;;;;7.70;4.70;;;;;;;20.14;62.22;98703.09;220969;1270;22697;-70
2022/06/27 03:51:11;;;;;;;4.60;4.10;;;;;;;20.67;61.89;98699.89;220428;1270;22649;-70
2022/06/27 03:56:15;;;;;;;5.70;4.30;;;;;;;21.24;60.81;98706.21;221225;1270;22656;-69
2022/06/27 04:01:21;;;;;;;4.50;4.10;;;;;;;21.69;60.11;98706.30;220466;1271;23054;-70
2022/06/27 04:06:23;;;;;;;5.60;4.70;;;;;;;22.12;59.01;98706.66;220304;1268;22627;-70
2022/06/27 04:11:27;;;;;;;6.80;5.10;;;;;;;22.40;58.15;98715.34;220237;1270;22624;-70
2022/06/27 04:16:32;;;;;;;6.10;5.40;;;;;;;22.53;57.98;98717.23;220171;1270;22623;-69
2022/06/27 04:22:10;;;;;;;5.90;5.20;;;;;;;22.69;57.71;98719.77;220284;1270;22566;-70
2022/06/27 04:27:33;;;;;;;5.90;5.30;;;;;;;22.67;57.42;98723.81;220138;1269;22532;-70
2022/06/27 04:32:36;;;;;;;6.20;5.40;;;;;;;22.58;57.46;98721.35;220445;1270;25588;-69
2022/06/27 04:37:43;;;;;;;9.10;7.70;;;;;;;22.43;57.49;98721.92;220360;1270;24222;-69
2022/06/27 04:43:19;;;;;;;7.00;5.90;;;;;;;22.22;57.86;98731.90;220215;1270;22771;-70
2022/06/27 04:48:26;;;;;;;5.90;5.20;;;;;;;21.99;58.22;98730.30;220480;1270;24211;-69
2022/06/27 04:53:30;;;;;;;8.00;5.90;;;;;;;21.82;58.90;98731.20;220623;1270;23255;-70
2022/06/27 04:58:33;;;;;;;6.00;5.40;;;;;;;21.78;59.36;98729.58;220436;1270;25397;-70
2022/06/27 05:03:36;;;;;;;8.80;6.20;;;;;;;21.87;59.70;98723.80;220178;1268;24215;-70
2022/06/27 05:08:43;;;;;;;7.80;6.20;;;;;;;21.99;59.80;98723.06;220198;1271;24261;-71
2022/06/27 05:13:46;;;;;;;8.70;6.10;;;;;;;22.16;59.88;98725.35;220644;1271;22585;-70
2022/06/27 05:19:07;;;;;;;7.90;6.10;;;;;;;22.35;59.97;98727.20;220110;1270;22708;-70
2022/06/27 05:24:19;;;;;;;7.30;5.90;;;;;;;22.56;59.85;98735.52;220460;1268;22643;-69
2022/06/27 05:29:22;;;;;;;6.50;5.70;;;;;;;22.76;59.98;98735.92;220549;1268;22538;-69
2022/06/27 05:34:25;;;;;;;6.80;6.00;;;;;;;22.96;59.93;98738.05;220651;1268;23840;-69
2022/06/27 05:39:28;;;;;;;6.10;5.30;;;;;;;23.18;59.51;98739.80;220367;1268;22544;-70
2022/06/27 05:44:33;;;;;;;5.60;5.00;;;;;;;23.33;58.71;98743.70;220047;1268;22564;-69
2022/06/27 05:49:42;;;;;;;10.20;6.00;;;;;;;23.55;58.35;98747.11;220430;1271;22729;-69
2022/06/27 05:54:47;;;;;;;10.20;5.90;;;;;;;23.79;57.88;98747.41;219781;1270;22576;-69
2022/06/27 05:59:52;;;;;;;8.20;6.70;;;;;;;24.04;57.32;98751.02;219723;1270;22716;-70
2022/06/27 06:04:56;;;;;;;9.00;6.60;;;;;;;24.26;56.86;98747.48;219172;1270;26657;-71
2022/06/27 06:09:59;;;;;;;8.30;7.40;;;;;;;24.51;56.32;98756.48;219772;1271;23860;-69
2022/06/27 06:15:02;;;;;;;8.20;6.40;;;;;;;24.71;56.02;98760.20;219591;1268;24231;-68
2022/06/27 06:20:06;;;;;;;6.80;6.20;;;;;;;24.93;55.13;98761.87;220102;1271;23172;-69
2022/06/27 06:25:09;;;;;;;6.90;6.30;;;;;;;25.15;54.83;98762.02;220132;1270;22698;-69
2022/06/27 06:30:15;;;;;;;7.50;6.80;;;;;;;25.36;54.55;98758.96;219436;1270;24107;-70
2022/06/27 06:35:25;;;;;;;12.90;7.70;;;;;;;25.51;53.63;98767.86;221256;1269;23231;-69
2022/06/27 06:40:29;;;;;;;9.00;7.00;;;;;;;25.65;53.42;98771.64;219839;1271;25343;-69
2022/06/27 06:45:32;;;;;;;10.90;7.10;;;;;;;25.78;53.08;98765.22;220210;1270;24155;-70
2022/06/27 06:50:46;;;;;;;8.80;7.30;;;;;;;25.88;52.42;98768.68;220004;1271;22529;-72
2022/06/27 06:55:50;;;;;;;9.40;8.50;;;;;;;25.92;52.30;98766.95;219100;1272;24158;-69
2022/06/27 07:00:53;;;;;;;7.20;6.50;;;;;;;26.10;52.44;98768.39;219259;1275;25382;-70
2022/06/27 07:05:56;;;;;;;8.50;7.80;;;;;;;26.31;51.27;98764.37;218669;1276;22583;-69
2022/06/27 07:11:02;;;;;;;8.40;7.60;;;;;;;26.48;51.19;98760.16;218838;1276;25371;-70
2022/06/27 07:16:14;;;;;;;8.00;7.20;;;;;;;26.70;50.51;98756.67;218707;1276;22545;-70
2022/06/27 07:21:19;;;;;;;15.50;8.50;;;;;;;26.95;50.39;98757.70;220633;1276;24272;-70
2022/06/27 07:26:23;;;;;;;26.30;9.60;;;;;;;27.24;49.46;98754.17;220477;1276;24326;-70
2022/06/27 07:31:34;;;;;;;11.60;7.50;;;;;;;27.49;49.00;98754.99;220211;1279;22639;-69
2022/06/27 07:36:38;;;;;;;15.60;8.10;;;;;;;27.74;48.04;98759.53;220489;1277;22584;-70
2022/06/27 07:41:41;;;;;;;9.20;6.90;;;;;;;27.95;47.57;98761.34;220208;1277;22528;-71
2022/06/27 07:46:46;;;;;;;15.90;13.70;;;;;;;28.28;47.96;98758.23;220514;1274;24328;-70
2022/06/27 07:51:48;;;;;;;7.50;6.70;;;;;;;28.57;47.35;98762.10;218817;1277;24386;-70
2022/06/27 07:56:53;;;;;;;9.40;8.50;;;;;;;28.69;46.20;98759.95;219108;1275;23006;-69
2022/06/27 08:02:05;;;;;;;6.70;6.10;;;;;;;28.83;46.08;98759.48;219012;1277;24406;-69
2022/06/27 08:07:07;;;;;;;13.80;12.40;;;;;;;28.96;45.47;98760.41;219127;1277;22531;-69
2022/06/27 08:12:10;;;;;;;6.70;6.10;;;;;;;29.19;45.34;98761.07;218852;1276;24241;-70
2022/06/27 08:17:14;;;;;;;7.00;6.20;;;;;;;29.34;44.84;98765.93;218844;1276;25247;-69
2022/06/27 08:22:16;;;;;;;6.30;5.50;;;;;;;29.51;44.68;98766.39;218892;1276;24168;-69
2022/06/27 08:27:19;;;;;;;5.80;5.30;;;;;;;29.71;44.39;98766.16;218795;1277;22628;-69
2022/06/27 08:32:21;;;;;;;5.80;5.20;;;;;;;29.85;43.41;98763.52;218959;1275;22543;-70
2022/06/27 08:37:24;;;;;;;6.30;5.60;;;;;;;29.90;43.07;98764.48;218868;1277;22558;-70
2022/06/27 08:42:27;;;;;;;5.90;5.30;;;;;;;30.08;43.30;98767.96;218732;1278;23993;-69
2022/06/27 08:47:30;;;;;;;6.30;5.30;;;;;;;30.24;42.59;98771.48;219526;1278;22560;-69
2022/06/27 08:52:34;;;;;;;6.60;6.00;;;;;;;30.49;42.84;98770.96;218678;1274;26514;-69
2022/06/27 08:57:41;;;;;;;6.30;5.70;;;;;;;30.72;42.52;98770.29;218998;1275;25365;-70
2022/06/27 09:02:48;;;;;;;6.60;6.00;;;;;;;30.92;42.18;98770.77;219275;1278;22545;-70
2022/06/27 09:08:06;;;;;;;6.70;6.10;;;;;;;31.08;41.36;98771.42;218735;1274;22672;-70
2022/06/27 09:13:12;;;;;;;8.80;6.70;;;;;;;31.12;41.07;98766.90;220364;1277;23838;-71
2022/06/27 09:18:26;;;;;;;6.70;6.10;;;;;;;31.16;40.62;98767.67;220726;1277;22564;-71
2022/06/27 09:23:49;;;;;;;7.00;6.30;;;;;;;31.21;40.65;98766.79;220560;1276;22810;-71
2022/06/27 09:29:00;;;;;;;6.20;5.70;;;;;;;31.35;40.47;98768.20;220369;1278;22560;-71
2022/06/27 09:34:10;;;;;;;7.20;5.00;;;;;;;31.59;40.37;98768.78;220423;1275;23111;-70
2022/06/27 09:39:34;;;;;;;7.10;6.60;;;;;;;31.74;39.55;98766.62;218989;1275;22552;-71
2022/06/27 09:44:38;;;;;;;5.40;4.90;;;;;;;31.82;39.18;98762.08;220298;1277;24277;-71
2022/06/27 09:50:00;;;;;;;5.70;5.20;;;;;;;31.95;39.28;98758.19;220620;1277;22562;-70
2022/06/27 09:55:07;;;;;;;6.10;4.20;;;;;;;32.13;37.70;98759.42;219043;1277;25263;-70
2022/06/27 10:00:11;;;;;;;5.00;4.60;;;;;;;32.10;37.07;98757.60;219112;1274;23199;-71
2022/06/27 10:05:18;;;;;;;8.70;7.90;;;;;;;32.34;37.57;98757.46;220434;1277;22566;-70
2022/06/27 10:10:23;;;;;;;9.80;8.80;;;;;;;32.53;37.01;98753.77;219251;1277;25259;-69
2022/06/27 10:15:35;;;;;;;5.70;5.20;;;;;;;32.57;35.80;98758.81;220290;1277;25226;-69
2022/06/27 10:20:47;;;;;;;6.50;5.90;;;;;;;32.56;35.85;98743.80;218961;1277;22494;-70
2022/06/27 10:25:49;;;;;;;5.40;4.90;;;;;;;32.70;35.73;98739.46;220633;1277;23991;-70
2022/06/27 10:31:00;;;;;;;9.80;5.00;;;;;;;32.81;35.81;98732.19;220341;1277;24189;-69
2022/06/27 10:36:14;;;;;;;4.70;4.30;;;;;;;33.00;35.50;98740.43;219178;1277;22556;-69
2022/06/27 10:41:19;;;;;;;5.30;4.80;;;;;;;33.21;35.43;98737.41;218910;1277;23859;-70
2022/06/27 10:46:21;;;;;;;5.60;5.10;;;;;;;33.36;34.69;98733.90;218933;1275;25357;-71
2022/06/27 10:51:34;;;;;;;6.30;4.90;;;;;;;33.54;35.02;98726.98;220723;1275;25421;-70
2022/06/27 10:56:39;;;;;;;5.00;4.50;;;;;;;33.93;34.91;98727.22;220646;1277;23385;-70
2022/06/27 11:02:02;;;;;;;4.50;4.00;;;;;;;34.16;33.23;98725.57;220667;1276;24282;-70
2022/06/27 11:07:19;;;;;;;5.00;4.00;;;;;;;34.27;33.70;98714.08;220598;1276;25381;-70
2022/06/27 11:12:28;;;;;;;4.80;4.00;;;;;;;34.66;33.47;98714.52;220325;1276;22571;-71
2022/06/27 11:17:44;;;;;;;4.10;3.80;;;;;;;34.83;32.86;98704.11;220530;1278;24319;-70
2022/06/27 11:22:55;;;;;;;4.80;4.30;;;;;;;34.94;32.34;98700.16;220011;1278;22586;-71
2022/06/27 11:27:58;;;;;;;5.00;4.50;;;;;;;34.84;32.03;98698.46;220463;1276;25324;-71
2022/06/27 11:33:00;;;;;;;5.10;3.70;;;;;;;34.76;31.83;98693.18;220410;1275;23259;-71
2022/06/27 11:38:05;;;;;;;5.40;4.60;;;;;;;34.56;32.08;98682.63;218816;1275;22577;-70
2022/06/27 11:43:08;;;;;;;5.10;4.40;;;;;;;34.59;32.47;98685.30;219070;1276;22851;-69
2022/06/27 11:48:14;;;;;;;5.60;5.10;;;;;;;34.56;31.51;98686.20;219111;1276;22540;-69
2022/06/27 11:53:16;;;;;;;4.60;4.20;;;;;;;34.51;31.25;98684.48;220586;1276;22718;-70
2022/06/27 11:58:18;;;;;;;4.30;3.90;;;;;;;34.56;30.96;98677.47;220539;1276;22560;-70
2022/06/27 12:03:20;;;;;;;4.90;4.50;;;;;;;34.33;29.95;98670.27;220664;1274;23407;-70
2022/06/27 12:08:23;;;;;;;4.90;4.10;;;;;;;34.10;29.89;98665.52;217321;1276;23185;-69
2022/06/27 12:13:30;;;;;;;6.50;6.00;;;;;;;33.97;30.76;98663.04;218916;1276;22483;-70
2022/06/27 12:18:51;;;;;;;4.60;3.70;;;;;;;34.14;30.41;98659.80;218906;1277;396480;-70
2022/06/27 12:23:53;;;;;;;4.20;3.90;;;;;;;34.27;30.10;98660.30;219088;1277;22541;-69
2022/06/27 12:28:56;;;;;;;3.70;3.40;;;;;;;34.40;29.75;98661.20;219075;1276;24262;-69
2022/06/27 12:34:11;;;;;;;4.80;4.30;;;;;;;34.40;29.54;98658.17;219221;1276;22846;-70
2022/06/27 12:39:34;;;;;;;5.70;5.20;;;;;;;34.41;29.84;98654.98;220332;1276;22798;-71
2022/06/27 12:44:36;;;;;;;4.90;4.50;;;;;;;34.45;30.27;98652.38;220522;1276;22536;-70
2022/06/27 12:49:38;;;;;;;4.80;4.40;;;;;;;34.44;30.46;98648.19;220502;1276;22640;-70
2022/06/27 12:54:40;;;;;;;4.70;4.30;;;;;;;34.15;30.17;98648.90;220755;1276;24617;-69
2022/06/27 12:59:43;;;;;;;4.40;4.10;;;;;;;33.78;30.71;98649.23;218974;1276;22836;-70
2022/06/27 13:04:53;;;;;;;4.50;4.20;;;;;;;33.95;31.14;98644.77;219014;1276;22562;-68
2022/06/27 13:10:11;;;;;;;5.30;4.80;;;;;;;34.23;30.59;98644.25;218972;1276;22562;-70
2022/06/27 13:15:16;;;;;;;6.50;4.70;;;;;;;34.50;30.49;98648.20;218744;1276;24247;-69
2022/06/27 13:20:18;;;;;;;6.10;5.40;;;;;;;34.78;30.83;98647.23;218869;1276;23094;-69
2022/06/27 13:25:21;;;;;;;6.50;6.00;;;;;;;34.97;30.49;98647.55;218830;1275;26406;-69
2022/06/27 13:30:24;;;;;;;5.80;5.20;;;;;;;35.00;30.73;98648.75;219277;1275;22703;-69
2022/06/27 13:35:27;;;;;;;6.20;5.00;;;;;;;35.18;30.49;98642.17;218756;1276;23642;-71
2022/06/27 13:40:30;;;;;;;5.50;5.00;;;;;;;35.19;30.45;98641.73;220415;1276;25436;-68
2022/06/27 13:45:39;;;;;;;5.00;4.60;;;;;;;35.39;30.88;98639.05;220430;1275;22538;-69
2022/06/27 13:50:41;;;;;;;6.50;5.90;;;;;;;35.57;30.58;98638.38;218947;1276;22715;-71
2022/06/27 13:55:44;;;;;;;5.70;5.20;;;;;;;35.51;29.81;98637.52;219810;1276;22621;-69
2022/06/27 14:00:46;;;;;;;5.80;5.30;;;;;;;35.31;30.04;98636.33;218533;1274;25458;-69
2022/06/27 14:05:48;;;;;;;5.40;5.00;;;;;;;35.26;30.18;98631.73;219068;1276;22568;-70
2022/06/27 14:10:56;;;;;;;5.80;5.40;;;;;;;35.15;30.33;98630.63;218925;1276;25344;-70
2022/06/27 14:16:05;;;;;;;5.60;5.20;;;;;;;35.02;29.76;98628.96;219080;1276;22583;-69
2022/06/27 14:21:07;;;;;;;6.30;5.80;;;;;;;34.75;30.35;98627.86;219197;1276;26420;-70
2022/06/27 14:26:09;;;;;;;5.90;5.40;;;;;;;34.70;30.48;98618.70;220223;1276;25309;-70
2022/06/27 14:31:11;;;;;;;5.20;4.80;;;;;;;34.75;30.77;98619.38;219417;1276;22660;-69
2022/06/27 14:36:14;;;;;;;5.70;5.30;;;;;;;34.91;30.64;98612.34;219168;1276;22724;-70
2022/06/27 14:41:16;;;;;;;9.10;5.10;;;;;;;34.92;30.51;98604.09;219029;1276;25471;-69
2022/06/27 14:46:32;;;;;;;5.20;4.80;;;;;;;35.03;30.52;98603.66;220137;1276;22594;-70
2022/06/27 14:51:49;;;;;;;5.30;4.90;;;;;;;35.25;30.47;98606.66;219735;1276;22636;-69
2022/06/27 14:56:52;;;;;;;4.50;4.20;;;;;;;35.48;30.11;98608.27;218835;1278;25327;-69
2022/06/27 15:01:55;;;;;;;6.10;5.20;;;;;;;35.58;29.72;98607.61;219435;1276;26220;-69
2022/06/27 15:06:57;;;;;;;5.10;4.70;;;;;;;35.65;29.93;98603.84;219564;1274;22537;-69
2022/06/27 15:11:59;;;;;;;5.60;4.90;;;;;;;35.73;29.48;98602.52;219321;1276;22538;-71
2022/06/27 15:17:01;;;;;;;5.80;5.30;;;;;;;35.38;29.09;98598.34;220010;1276;22548;-69
2022/06/27 15:22:03;;;;;;;5.80;5.20;;;;;;;35.22;29.77;98593.58;219165;1276;23215;-69
2022/06/27 15:27:06;;;;;;;5.30;4.90;;;;;;;35.30;30.05;98589.38;219298;1276;23081;-70
2022/06/27 15:32:42;;;;;;;5.30;5.00;;;;;;;35.15;29.71;98586.55;219250;1276;22594;-70
2022/06/27 15:37:46;;;;;;;6.50;5.60;;;;;;;34.95;29.76;98589.97;219263;1276;22544;-71
2022/06/27 15:42:48;;;;;;;5.60;5.10;;;;;;;34.77;30.11;98589.45;219326;1276;24240;-70
2022/06/27 15:47:50;;;;;;;5.90;5.50;;;;;;;34.85;30.39;98587.99;219334;1276;25413;-70
2022/06/27 15:52:53;;;;;;;6.00;5.00;;;;;;;34.93;30.46;98588.05;219662;1276;23260;-69
2022/06/27 15:57:55;;;;;;;5.30;4.90;;;;;;;34.87;30.37;98585.84;219186;1274;25563;-70
2022/06/27 16:02:58;;;;;;;6.10;5.60;;;;;;;34.97;30.79;98584.50;219209;1275;22637;-69
2022/06/27 16:08:00;;;;;;;5.40;5.00;;;;;;;34.93;30.05;98582.58;219562;1274;24266;-70
2022/06/27 16:13:03;;;;;;;5.40;4.90;;;;;;;34.89;30.57;98583.46;219559;1274;22557;-71
2022/06/27 16:18:06;;;;;;;5.40;4.90;;;;;;;34.97;30.46;98580.36;220228;1275;22560;-71
2022/06/27 16:23:09;;;;;;;5.30;4.80;;;;;;;35.00;30.52;98574.92;220252;1276;22490;-70
2022/06/27 16:28:12;;;;;;;6.00;5.50;;;;;;;35.05;30.11;98577.96;219377;1276;24238;-70
2022/06/27 16:33:15;;;;;;;6.10;5.50;;;;;;;34.91;30.08;98578.15;219561;1276;25390;-70
2022/06/27 16:38:18;;;;;;;5.20;4.70;;;;;;;34.94;30.49;98576.58;219609;1276;26519;-70
2022/06/27 16:43:22;;;;;;;6.60;5.60;;;;;;;35.03;30.33;98579.64;219523;1276;22538;-71
2022/06/27 16:48:27;;;;;;;5.60;5.10;;;;;;;35.04;30.36;98579.35;220280;1274;25323;-69
2022/06/27 16:53:44;;;;;;;5.70;4.70;;;;;;;34.90;30.32;98582.63;219637;1274;26357;-72
2022/06/27 16:58:46;;;;;;;5.40;5.00;;;;;;;34.60;30.36;98581.94;219171;1275;22573;-70
2022/06/27 17:03:50;;;;;;;6.00;5.30;;;;;;;34.30;30.23;98576.71;219294;1276;24155;-70
2022/06/27 17:08:55;;;;;;;5.80;5.30;;;;;;;33.98;31.00;98578.29;220168;1276;22563;-69
2022/06/27 17:14:10;;;;;;;5.50;5.00;;;;;;;33.85;31.33;98582.25;219485;1274;22540;-70
2022/06/27 17:19:19;;;;;;;5.60;5.10;;;;;;;33.71;31.73;98583.83;219435;1274;23813;-70
2022/06/27 17:24:21;;;;;;;5.10;4.60;;;;;;;34.22;31.73;98592.26;219418;1275;22507;-71
2022/06/27 17:29:24;;;;;;;4.40;4.10;;;;;;;34.66;30.66;98602.30;220363;1274;22608;-69
2022/06/27 17:34:26;;;;;;;5.50;5.00;;;;;;;34.63;30.62;98607.02;219471;1275;24476;-71
2022/06/27 17:39:28;;;;;;;4.70;4.30;;;;;;;34.28;31.09;98611.52;219173;1276;25298;-69
2022/06/27 17:44:30;;;;;;;4.70;4.40;;;;;;;33.81;31.71;98611.91;219098;1276;25264;-70
2022/06/27 17:49:33;;;;;;;4.50;4.10;;;;;;;33.33;32.23;98612.15;219170;1276;24229;-71
2022/06/27 17:54:35;;;;;;;4.80;4.40;;;;;;;32.79;32.81;98620.90;219142;1276;25527;-71
2022/06/27 17:59:38;;;;;;;5.00;4.50;;;;;;;32.25;33.57;98625.41;219206;1276;25054;-70
2022/06/27 18:04:47;;;;;;;5.60;5.10;;;;;;;31.78;34.30;98621.19;219629;1276;24279;-70
2022/06/27 18:09:49;;;;;;;5.40;5.00;;;;;;;31.37;35.02;98623.32;219370;1276;23460;-71
2022/06/27 18:14:55;;;;;;;6.90;6.30;;;;;;;30.99;35.56;98620.24;220162;1275;22714;-70
2022/06/27 18:19:57;;;;;;;5.90;4.60;;;;;;;30.65;36.12;98629.92;220200;1276;22701;-69
2022/06/27 18:24:59;;;;;;;6.20;5.60;;;;;;;30.40;36.59;98627.21;220266;1276;22611;-71
2022/06/27 18:30:03;;;;;;;6.70;5.80;;;;;;;30.18;36.93;98627.48;219984;1276;24316;-70
2022/06/27 18:35:06;;;;;;;5.90;5.40;;;;;;;29.95;37.34;98627.27;218935;1276;22778;-69
2022/06/27 18:40:08;;;;;;;5.50;5.00;;;;;;;29.68;37.67;98635.63;219207;1276;26604;-70
2022/06/27 18:45:10;;;;;;;7.30;6.00;;;;;;;29.41;38.00;98642.55;220066;1275;22629;-69
2022/06/27 18:50:13;;;;;;;6.40;5.30;;;;;;;29.15;38.22;98646.01;219218;1275;22544;-70
2022/06/27 18:55:16;;;;;;;5.80;5.20;;;;;;;28.90;38.64;98645.81;218841;1277;22658;-70
2022/06/27 19:00:19;;;;;;;7.30;5.20;;;;;;;28.67;38.97;98652.65;219207;1276;22532;-70
2022/06/27 19:05:22;;;;;;;5.80;5.20;;;;;;;28.45;39.34;98656.28;219313;1275;25221;-70
2022/06/27 19:10:24;;;;;;;6.10;5.60;;;;;;;28.24;39.72;98668.34;219541;1274;25264;-69
2022/06/27 19:15:26;;;;;;;6.60;6.00;;;;;;;28.04;39.93;98674.12;219297;1276;23675;-70
2022/06/27 19:20:29;;;;;;;7.50;6.70;;;;;;;27.86;40.31;98671.91;219139;1276;23710;-69
2022/06/27 19:25:32;;;;;;;7.40;6.60;;;;;;;27.69;41.02;98687.79;219385;1276;22740;-70
2022/06/27 19:30:34;;;;;;;9.70;7.70;;;;;;;27.52;41.50;98690.05;219238;1276;22968;-70
2022/06/27 19:35:36;;;;;;;7.70;6.80;;;;;;;27.36;41.93;98685.36;218916;1276;26487;-69
2022/06/27 19:40:39;;;;;;;8.20;7.40;;;;;;;27.22;42.24;98680.17;219137;1276;22554;-70
2022/06/27 19:45:43;;;;;;;8.20;7.30;;;;;;;27.08;42.53;98680.02;219241;1276;25472;-70
2022/06/27 19:50:46;;;;;;;10.20;8.40;;;;;;;26.91;43.58;98682.09;219081;1276;22705;-70
2022/06/27 19:55:49;;;;;;;15.40;9.30;;;;;;;26.64;44.55;98681.73;219294;1274;22588;-69
2022/06/27 20:00:52;;;;;;;10.00;8.30;;;;;;;26.37;45.40;98675.71;219280;1276;24323;-70
2022/06/27 20:05:57;;;;;;;9.10;8.20;;;;;;;26.16;45.85;98670.75;220118;1276;22582;-69
2022/06/27 20:10:59;;;;;;;10.00;9.00;;;;;;;26.01;45.92;98661.20;219203;1276;22551;-75
2022/06/27 20:16:02;;;;;;;10.00;9.00;;;;;;;25.87;46.30;98656.27;219344;1276;22544;-70
2022/06/27 20:21:05;;;;;;;9.90;8.60;;;;;;;25.72;46.65;98654.33;219343;1276;22564;-70
2022/06/27 20:26:07;;;;;;;8.70;7.90;;;;;;;25.57;47.01;98647.91;219281;1276;22567;-69
2022/06/27 20:31:09;;;;;;;11.40;7.60;;;;;;;25.42;47.23;98649.48;219364;1276;22592;-70
2022/06/27 20:36:12;;;;;;;9.30;8.30;;;;;;;25.29;47.61;98648.98;219196;1276;25380;-69
2022/06/27 20:41:14;;;;;;;9.20;8.10;;;;;;;25.16;48.02;98648.65;219182;1276;25373;-71
2022/06/27 20:46:17;;;;;;;8.60;7.70;;;;;;;25.03;48.37;98640.48;219136;1276;25494;-69
2022/06/27 20:51:22;;;;;;;8.40;7.50;;;;;;;24.89;49.05;98633.41;219273;1276;26461;-71
2022/06/27 20:56:25;;;;;;;8.70;7.90;;;;;;;24.78;49.42;98642.31;219255;1276;22555;-69
2022/06/27 21:01:27;;;;;;;9.90;9.00;;;;;;;24.67;49.69;98644.15;219169;1275;24391;-71
2022/06/27 21:06:29;;;;;;;8.80;7.60;;;;;;;24.57;49.96;98641.27;220065;1276;22573;-70
2022/06/27 21:11:51;;;;;;;9.40;7.80;;;;;;;24.48;50.27;98642.25;218926;1276;22570;-70
2022/06/27 21:16:54;;;;;;;8.90;8.00;;;;;;;24.40;50.82;98638.08;219085;1276;22484;-69
2022/06/27 21:21:57;;;;;;;8.60;7.80;;;;;;;24.33;51.21;98638.27;219090;1276;22553;-70
2022/06/27 21:27:04;;;;;;;8.70;7.90;;;;;;;24.24;51.54;98639.56;219306;1276;22540;-69
2022/06/27 21:32:10;;;;;;;8.40;7.50;;;;;;;24.17;52.35;98637.11;219177;1276;26508;-70
2022/06/27 21:37:41;;;;;;;7.80;7.10;;;;;;;24.12;52.16;98640.98;219089;1276;22716;-70
2022/06/27 21:42:51;;;;;;;8.60;7.50;;;;;;;24.01;52.25;98647.27;219187;1276;26429;-69
2022/06/27 21:48:04;;;;;;;8.20;7.40;;;;;;;23.90;52.69;98644.60;219254;1276;24448;-70
2022/06/27 21:53:06;;;;;;;8.90;7.80;;;;;;;23.84;52.65;98646.64;219294;1276;24366;-70
2022/06/27 21:58:10;;;;;;;8.10;7.40;;;;;;;23.80;52.92;98642.09;219189;1276;22540;-69
2022/06/27 22:03:14;;;;;;;8.90;8.00;;;;;;;23.83;53.14;98637.13;219254;1276;22557;-69
2022/06/27 22:08:17;;;;;;;9.60;8.60;;;;;;;23.82;53.21;98635.63;219176;1276;24388;-69
2022/06/27 22:13:22;;;;;;;9.30;8.30;;;;;;;23.80;53.29;98643.80;219179;1276;24267;-69
2022/06/27 22:18:25;;;;;;;10.80;7.70;;;;;;;23.77;53.37;98655.35;219444;1276;22693;-69
2022/06/27 22:23:30;;;;;;;8.50;7.70;;;;;;;23.71;53.39;98666.17;219424;1276;25380;-70
2022/06/27 22:28:35;;;;;;;8.60;7.70;;;;;;;23.63;53.86;98666.19;219262;1276;22879;-70
2022/06/27 22:33:38;;;;;;;9.50;8.00;;;;;;;23.54;53.91;98671.05;220059;1276;23204;-70
2022/06/27 22:38:43;;;;;;;8.40;7.60;;;;;;;23.44;54.05;98676.03;219975;1276;24385;-70
2022/06/27 22:43:45;;;;;;;8.50;7.70;;;;;;;23.35;54.27;98678.14;219209;1276;24111;-70
2022/06/27 22:48:53;;;;;;;9.20;8.00;;;;;;;23.23;54.70;98673.66;219154;1276;22547;-68
2022/06/27 22:53:57;;;;;;;8.50;7.80;;;;;;;23.13;54.76;98678.30;219205;1276;22661;-70
2022/06/27 22:59:00;;;;;;;8.60;7.80;;;;;;;23.02;55.09;98678.50;219120;1276;22774;-70
2022/06/27 23:04:03;;;;;;;8.80;8.00;;;;;;;22.90;55.34;98681.25;219134;1276;26165;-71
2022/06/27 23:09:06;;;;;;;7.90;7.10;;;;;;;22.78;55.66;98687.73;219137;1276;24260;-70
2022/06/27 23:14:09;;;;;;;9.10;8.20;;;;;;;22.66;55.90;98687.20;219072;1276;22535;-69
2022/06/27 23:19:12;;;;;;;10.40;8.30;;;;;;;22.56;56.11;98677.19;219034;1276;26573;-70
2022/06/27 23:24:14;;;;;;;7.90;7.10;;;;;;;22.45;56.41;98668.48;219298;1276;25353;-69
2022/06/27 23:29:17;;;;;;;8.30;7.50;;;;;;;22.31;56.78;98655.49;219450;1276;25370;-68
2022/06/27 23:34:19;;;;;;;8.20;7.20;;;;;;;22.19;57.38;98646.20;219309;1276;23871;-70
2022/06/27 23:39:21;;;;;;;8.30;7.50;;;;;;;22.07;57.60;98652.04;219149;1276;25540;-70
2022/06/27 23:44:24;;;;;;;9.80;7.60;;;;;;;21.96;57.82;98657.17;219233;1276;25272;-70